Milan — YT2484 — position and weather

sailwx.info

Track history (hours):
 
Tides and Currents Weather Stations Pressure Air Temp Water Temp Dewpoint Dewpoint Depression Visibility Wind Speed Wind Dir Waves Ship Positions

Milan

Last reported at 2017-Dec-17 21:46 UTC. Time now 2017-Dec-18 05:20 UTC.
Position N 44°43' E 021°03'.

Length 29 m.

Type: Cargo ship. MMSI: 279202484.

Date/timePositionNaut miles runAvg speedWind from/ knotsBaromVisibWave heightAir tempDewpointWater temp
2017-Dec-17 21:46N 44°43' E 021°03'1 2.3
2017-Dec-17 21:31N 44°43' E 021°04'1 2.4
2017-Dec-17 21:00N 44°43' E 021°05'1 2.2
2017-Dec-17 20:30N 44°44' E 021°07'1 2.4
2017-Dec-17 20:00N 44°44' E 021°08'1 2.4
2017-Dec-17 19:31N 44°45' E 021°10'1 1.9
2017-Dec-17 19:00N 44°46' E 021°11'1 2.1
2017-Dec-17 18:28N 44°46' E 021°12'1 2.2
2017-Dec-17 18:00N 44°47' E 021°13'1 2.5
2017-Dec-17 17:30N 44°47' E 021°15'4 0.2
2017-Dec-16 21:00N 44°45' E 021°10'4 6.1
2017-Dec-16 20:18N 44°43' E 021°04'2 6.2
2017-Dec-16 20:00N 44°43' E 021°02'3 5.9
2017-Dec-16 19:30N 44°42' E 020°58'3 6.2
2017-Dec-16 19:00N 44°40' E 020°55'3 6.4
2017-Dec-16 18:30N 44°39' E 020°50'3 6.5
2017-Dec-16 18:00N 44°40' E 020°46'2 3.7
2017-Dec-16 17:30N 44°41' E 020°43'1 1.3
2017-Dec-16 17:00N 44°40' E 020°44'0 0.2
2017-Dec-16 16:30N 44°40' E 020°44'0 0.2
2017-Dec-16 16:00N 44°40' E 020°44'0 0.2
2017-Dec-16 15:27N 44°40' E 020°44'0 0.2
2017-Dec-16 14:56N 44°40' E 020°44'0 0.2
2017-Dec-16 14:30N 44°40' E 020°44'0 0.0
2017-Dec-16 00:07N 44°40' E 020°44'0 0.0
2017-Dec-15 23:45N 44°40' E 020°44'0 0.0
2017-Dec-15 23:24N 44°40' E 020°44'0 0.0
2017-Dec-15 22:58N 44°40' E 020°44'0 0.0
2017-Dec-15 22:05N 44°40' E 020°44'0 0.0
2017-Dec-15 22:00N 44°40' E 020°44'0 0.0
2017-Dec-15 21:26N 44°40' E 020°44'0 0.0
2017-Dec-15 20:54N 44°40' E 020°44'0 0.0
2017-Dec-15 20:30N 44°40' E 020°44'0 0.0
2017-Dec-15 20:00N 44°40' E 020°44'0 0.0
2017-Dec-15 19:25N 44°40' E 020°44'0 0.0
2017-Dec-15 19:00N 44°40' E 020°44'0 0.0
2017-Dec-15 18:25N 44°40' E 020°44'0 0.0
2017-Dec-15 17:51N 44°40' E 020°44'0 0.0
2017-Dec-15 17:28N 44°40' E 020°44'0 0.0
2017-Dec-15 16:56N 44°40' E 020°44'0 0.0
2017-Dec-15 16:30N 44°40' E 020°44'0 0.0
2017-Dec-15 15:41N 44°40' E 020°44'0 0.0
2017-Dec-15 15:30N 44°40' E 020°44'0 0.0
2017-Dec-15 15:00N 44°40' E 020°44'0 0.0
2017-Dec-15 13:37N 44°40' E 020°44'0 0.0
2017-Dec-15 13:12N 44°40' E 020°44'0 0.0
2017-Dec-15 13:00N 44°40' E 020°44'0 0.0
2017-Dec-15 12:17N 44°40' E 020°44'0 0.0
2017-Dec-15 11:51N 44°40' E 020°44'0 0.0
2017-Dec-15 11:22N 44°40' E 020°44'0 0.0
2017-Dec-15 10:51N 44°40' E 020°44'12 0.7
2017-Dec-14 18:30N 44°51' E 020°38'0 0.0
2017-Dec-14 18:00N 44°51' E 020°38'1 1.1
2017-Dec-14 17:30N 44°51' E 020°38'0 0.6
2017-Dec-14 17:00N 44°51' E 020°38'1 1.7
2017-Dec-14 16:30N 44°50' E 020°39'1 2.2
2017-Dec-14 16:00N 44°49' E 020°39'3 2.5
2017-Dec-14 15:00N 44°46' E 020°38'1 2.4
2017-Dec-14 14:30N 44°45' E 020°38'1 2.4
2017-Dec-14 14:00N 44°45' E 020°39'1 2.6
2017-Dec-14 13:30N 44°44' E 020°41'1 2.5
2017-Dec-14 13:01N 44°43' E 020°42'1 2.4
2017-Dec-14 12:30N 44°42' E 020°43'7 0.8
2017-Dec-14 03:57N 44°40' E 020°52'4 1.9
2017-Dec-14 01:57N 44°42' E 020°57'3 2.4
2017-Dec-14 00:39N 44°43' E 021°01'2 2.6
2017-Dec-14 00:03N 44°43' E 021°03'0 2.5
2017-Dec-14 00:01N 44°43' E 021°03'1 2.6
2017-Dec-13 23:30N 44°43' E 021°05'1 2.5
2017-Dec-13 23:00N 44°44' E 021°07'1 2.5
2017-Dec-13 22:30N 44°44' E 021°08'1 2.6
2017-Dec-13 22:00N 44°45' E 021°10'2 2.2
2017-Dec-13 21:15N 44°46' E 021°12'21 0.7
2017-Dec-12 14:01N 44°40' E 020°44'0 1.7
2017-Dec-12 14:00N 44°40' E 020°44'0 0.0
2017-Dec-12 11:29N 44°40' E 020°44'0 0.0
2017-Dec-11 19:35N 44°40' E 020°44'0 5.9
2017-Dec-11 19:30N 44°41' E 020°43'2 3.3
2017-Dec-11 19:00N 44°42' E 020°42'3 5.3
2017-Dec-11 18:30N 44°44' E 020°40'3 5.0
2017-Dec-11 18:00N 44°46' E 020°38'3 5.3
2017-Dec-11 17:30N 44°49' E 020°38'3 5.4
2017-Dec-11 17:00N 44°51' E 020°37'3 6.0
2017-Dec-11 16:30N 44°50' E 020°33'3 5.5
2017-Dec-11 16:00N 44°50' E 020°29'2 4.1
2017-Dec-11 15:30N 44°49' E 020°27'3 5.3
2017-Dec-11 15:00N 44°48' E 020°24'3 5.6
2017-Dec-11 14:30N 44°46' E 020°21'1 3.0
2017-Dec-11 14:00N 44°45' E 020°19'0 0.0
2017-Dec-11 13:30N 44°45' E 020°19'0 0.0
2017-Dec-11 13:00N 44°45' E 020°19'0 0.0
2017-Dec-11 05:30N 44°45' E 020°20'0 0.0
2017-Dec-11 05:00N 44°45' E 020°20'0 0.0
2017-Dec-11 04:30N 44°45' E 020°20'0 0.0
2017-Dec-11 04:00N 44°45' E 020°20'0 0.3
2017-Dec-11 03:30N 44°45' E 020°20'1 2.5
2017-Dec-11 03:00N 44°46' E 020°21'1 2.5
2017-Dec-11 02:30N 44°47' E 020°22'1 2.5
2017-Dec-11 02:00N 44°48' E 020°23'1 2.4
2017-Dec-11 01:30N 44°48' E 020°25'1 2.2
2017-Dec-11 01:00N 44°48' E 020°26'1 2.2
2017-Dec-11 00:30N 44°49' E 020°27'1 1.8
2017-Dec-11 00:00N 44°50' E 020°27'1 2.5
2017-Dec-10 23:30N 44°50' E 020°29'1 2.7
2017-Dec-10 23:00N 44°50' E 020°31'1 2.7
2017-Dec-10 22:30N 44°50' E 020°33'1 2.8
2017-Dec-10 22:00N 44°51' E 020°35'1 2.7
2017-Dec-10 21:30N 44°51' E 020°36'1 2.6
2017-Dec-10 21:00N 44°51' E 020°38'1 2.7
2017-Dec-10 20:30N 44°49' E 020°39'1 2.7
2017-Dec-10 20:00N 44°48' E 020°38'1 2.7
2017-Dec-10 19:30N 44°47' E 020°38'1 2.5
2017-Dec-10 19:00N 44°46' E 020°38'1 2.6
2017-Dec-10 18:30N 44°45' E 020°39'1 2.9
2017-Dec-10 18:00N 44°44' E 020°41'1 2.7
2017-Dec-10 17:30N 44°43' E 020°42'1 2.7
2017-Dec-10 17:00N 44°41' E 020°43'1 2.9
2017-Dec-10 16:30N 44°40' E 020°44'1 2.9
2017-Dec-10 16:00N 44°40' E 020°46'1 2.6
2017-Dec-10 15:30N 44°40' E 020°48'1 2.6
2017-Dec-10 15:00N 44°40' E 020°50'1 2.9
2017-Dec-10 14:30N 44°40' E 020°52'1 2.8
2017-Dec-10 14:00N 44°40' E 020°54'1 2.7
2017-Dec-10 13:30N 44°41' E 020°56'1 2.8
2017-Dec-10 13:00N 44°42' E 020°57'1 2.7
2017-Dec-10 12:30N 44°42' E 020°59'1 2.6
2017-Dec-10 12:00N 44°43' E 021°00'1 2.3
2017-Dec-10 11:30N 44°43' E 021°02'8 0.4
2017-Dec-09 15:43N 44°46' E 021°12'2 5.3
2017-Dec-09 15:25N 44°46' E 021°11'3 5.7
2017-Dec-09 14:57N 44°44' E 021°08'3 5.5
2017-Dec-09 14:29N 44°43' E 021°04'3 5.3
2017-Dec-09 14:00N 44°43' E 021°01'3 5.3
2017-Dec-09 13:30N 44°42' E 020°57'3 5.6
2017-Dec-09 13:00N 44°40' E 020°54'3 5.4
2017-Dec-09 12:30N 44°39' E 020°51'3 5.8
2017-Dec-09 12:00N 44°39' E 020°47'3 5.4
2017-Dec-09 11:30N 44°41' E 020°43'3 5.3
2017-Dec-09 11:00N 44°43' E 020°41'3 5.3
2017-Dec-09 10:30N 44°45' E 020°39'3 5.0
2017-Dec-09 10:00N 44°47' E 020°38'3 5.2
2017-Dec-09 09:30N 44°50' E 020°39'3 5.0
2017-Dec-09 09:00N 44°51' E 020°36'3 5.6
2017-Dec-09 08:30N 44°50' E 020°32'3 5.5
2017-Dec-09 08:00N 44°50' E 020°29'2 4.3
2017-Dec-09 07:30N 44°48' E 020°26'3 6.1
2017-Dec-09 07:00N 44°47' E 020°22'3 6.1
2017-Dec-09 06:30N 44°45' E 020°20'0 0.7
2017-Dec-09 06:00N 44°45' E 020°19'0 0.2
2017-Dec-09 05:30N 44°45' E 020°19'0 0.0
2017-Dec-09 05:00N 44°45' E 020°19'0 0.0
2017-Dec-09 04:30N 44°45' E 020°19'0 0.0
2017-Dec-09 04:00N 44°45' E 020°19'0 0.3
2017-Dec-09 03:30N 44°45' E 020°20'0 0.4
2017-Dec-09 03:00N 44°45' E 020°19'0 0.0
2017-Dec-09 02:30N 44°45' E 020°19'0 0.0
2017-Dec-09 02:00N 44°45' E 020°19'0 0.0
2017-Dec-09 01:30N 44°45' E 020°19'0 0.0
2017-Dec-09 01:00N 44°45' E 020°19'0 0.5
2017-Dec-09 00:30N 44°45' E 020°20'0 0.0
2017-Dec-09 00:00N 44°45' E 020°20'0 0.0
2017-Dec-08 23:30N 44°45' E 020°20'0 0.0
2017-Dec-08 23:00N 44°45' E 020°20'0 0.0
2017-Dec-08 22:30N 44°45' E 020°20'1 1.2
2017-Dec-08 22:00N 44°45' E 020°20'1 2.5
2017-Dec-08 21:30N 44°46' E 020°21'1 2.5
2017-Dec-08 21:00N 44°47' E 020°22'1 2.3
2017-Dec-08 20:30N 44°48' E 020°24'1 2.3
2017-Dec-08 20:00N 44°48' E 020°25'1 2.1
2017-Dec-08 19:30N 44°48' E 020°27'1 1.9
2017-Dec-08 19:00N 44°49' E 020°27'1 1.8
2017-Dec-08 18:30N 44°50' E 020°27'1 2.3
2017-Dec-08 18:00N 44°50' E 020°29'1 2.4
2017-Dec-08 17:30N 44°50' E 020°31'1 2.5
2017-Dec-08 17:00N 44°50' E 020°32'1 2.5
2017-Dec-08 16:30N 44°51' E 020°34'1 2.6
2017-Dec-08 16:00N 44°51' E 020°36'1 2.6
2017-Dec-08 15:30N 44°51' E 020°38'1 2.7
2017-Dec-08 15:00N 44°50' E 020°39'1 2.5
2017-Dec-08 14:30N 44°49' E 020°38'1 2.8
2017-Dec-08 14:00N 44°47' E 020°38'1 2.6
2017-Dec-08 13:30N 44°46' E 020°38'1 2.6
2017-Dec-08 13:00N 44°45' E 020°39'1 2.5
2017-Dec-08 12:30N 44°44' E 020°40'1 2.8
2017-Dec-08 12:00N 44°43' E 020°41'1 2.7
2017-Dec-08 11:30N 44°42' E 020°42'1 2.8
2017-Dec-08 11:00N 44°41' E 020°43'1 1.0
2017-Dec-08 10:27N 44°40' E 020°44'0 0.1
2017-Dec-08 09:58N 44°40' E 020°44'0 0.0
2017-Dec-08 09:30N 44°40' E 020°44'0 0.0
2017-Dec-08 09:00N 44°40' E 020°44'0 0.2
2017-Dec-08 08:30N 44°40' E 020°44'1 1.5
2017-Dec-08 07:58N 44°40' E 020°45'1 2.7
2017-Dec-08 07:30N 44°40' E 020°46'8 2.3
2017-Dec-08 04:05N 44°42' E 020°57'0 2.6
2017-Dec-08 04:00N 44°42' E 020°57'2 2.3
2017-Dec-08 02:59N 44°43' E 021°00'1 2.2
2017-Dec-08 02:30N 44°43' E 021°02'6 2.4
2017-Dec-07 23:53N 44°45' E 021°10'1 1.9
2017-Dec-07 23:30N 44°46' E 021°11'1 2.2
2017-Dec-07 23:00N 44°46' E 021°12'1 2.3
2017-Dec-07 22:22N 44°47' E 021°14'1 2.7
2017-Dec-07 21:58N 44°47' E 021°15'  
Track history (hours):
 
Tides and Currents Weather Stations Pressure Air Temp Water Temp Dewpoint Dewpoint Depression Visibility Wind Speed Wind Dir Waves Ship Positions

Milan

Last reported at 2017-Dec-17 21:46 UTC. Time now 2017-Dec-18 05:20 UTC.
Position N 44°43' E 021°03'.

Length 29 m.

Type: Cargo ship. MMSI: 279202484.

Date/timePositionNaut miles runAvg speedWind from/ knotsBaromVisibWave heightAir tempDewpointWater temp
2017-Dec-17 21:46N 44°43' E 021°03'1 2.3
2017-Dec-17 21:31N 44°43' E 021°04'1 2.4
2017-Dec-17 21:00N 44°43' E 021°05'1 2.2
2017-Dec-17 20:30N 44°44' E 021°07'1 2.4
2017-Dec-17 20:00N 44°44' E 021°08'1 2.4
2017-Dec-17 19:31N 44°45' E 021°10'1 1.9
2017-Dec-17 19:00N 44°46' E 021°11'1 2.1
2017-Dec-17 18:28N 44°46' E 021°12'1 2.2
2017-Dec-17 18:00N 44°47' E 021°13'1 2.5
2017-Dec-17 17:30N 44°47' E 021°15'4 0.2
2017-Dec-16 21:00N 44°45' E 021°10'4 6.1
2017-Dec-16 20:18N 44°43' E 021°04'2 6.2
2017-Dec-16 20:00N 44°43' E 021°02'3 5.9
2017-Dec-16 19:30N 44°42' E 020°58'3 6.2
2017-Dec-16 19:00N 44°40' E 020°55'3 6.4
2017-Dec-16 18:30N 44°39' E 020°50'3 6.5
2017-Dec-16 18:00N 44°40' E 020°46'2 3.7
2017-Dec-16 17:30N 44°41' E 020°43'1 1.3
2017-Dec-16 17:00N 44°40' E 020°44'0 0.2
2017-Dec-16 16:30N 44°40' E 020°44'0 0.2
2017-Dec-16 16:00N 44°40' E 020°44'0 0.2
2017-Dec-16 15:27N 44°40' E 020°44'0 0.2
2017-Dec-16 14:56N 44°40' E 020°44'0 0.2
2017-Dec-16 14:30N 44°40' E 020°44'0 0.0
2017-Dec-16 00:07N 44°40' E 020°44'0 0.0
2017-Dec-15 23:45N 44°40' E 020°44'0 0.0
2017-Dec-15 23:24N 44°40' E 020°44'0 0.0
2017-Dec-15 22:58N 44°40' E 020°44'0 0.0
2017-Dec-15 22:05N 44°40' E 020°44'0 0.0
2017-Dec-15 22:00N 44°40' E 020°44'0 0.0
2017-Dec-15 21:26N 44°40' E 020°44'0 0.0
2017-Dec-15 20:54N 44°40' E 020°44'0 0.0
2017-Dec-15 20:30N 44°40' E 020°44'0 0.0
2017-Dec-15 20:00N 44°40' E 020°44'0 0.0
2017-Dec-15 19:25N 44°40' E 020°44'0 0.0
2017-Dec-15 19:00N 44°40' E 020°44'0 0.0
2017-Dec-15 18:25N 44°40' E 020°44'0 0.0
2017-Dec-15 17:51N 44°40' E 020°44'0 0.0
2017-Dec-15 17:28N 44°40' E 020°44'0 0.0
2017-Dec-15 16:56N 44°40' E 020°44'0 0.0
2017-Dec-15 16:30N 44°40' E 020°44'0 0.0
2017-Dec-15 15:41N 44°40' E 020°44'0 0.0
2017-Dec-15 15:30N 44°40' E 020°44'0 0.0
2017-Dec-15 15:00N 44°40' E 020°44'0 0.0
2017-Dec-15 13:37N 44°40' E 020°44'0 0.0
2017-Dec-15 13:12N 44°40' E 020°44'0 0.0
2017-Dec-15 13:00N 44°40' E 020°44'0 0.0
2017-Dec-15 12:17N 44°40' E 020°44'0 0.0
2017-Dec-15 11:51N 44°40' E 020°44'0 0.0
2017-Dec-15 11:22N 44°40' E 020°44'0 0.0
2017-Dec-15 10:51N 44°40' E 020°44'12 0.7
2017-Dec-14 18:30N 44°51' E 020°38'0 0.0
2017-Dec-14 18:00N 44°51' E 020°38'1 1.1
2017-Dec-14 17:30N 44°51' E 020°38'0 0.6
2017-Dec-14 17:00N 44°51' E 020°38'1 1.7
2017-Dec-14 16:30N 44°50' E 020°39'1 2.2
2017-Dec-14 16:00N 44°49' E 020°39'3 2.5
2017-Dec-14 15:00N 44°46' E 020°38'1 2.4
2017-Dec-14 14:30N 44°45' E 020°38'1 2.4
2017-Dec-14 14:00N 44°45' E 020°39'1 2.6
2017-Dec-14 13:30N 44°44' E 020°41'1 2.5
2017-Dec-14 13:01N 44°43' E 020°42'1 2.4
2017-Dec-14 12:30N 44°42' E 020°43'7 0.8
2017-Dec-14 03:57N 44°40' E 020°52'4 1.9
2017-Dec-14 01:57N 44°42' E 020°57'3 2.4
2017-Dec-14 00:39N 44°43' E 021°01'2 2.6
2017-Dec-14 00:03N 44°43' E 021°03'0 2.5
2017-Dec-14 00:01N 44°43' E 021°03'1 2.6
2017-Dec-13 23:30N 44°43' E 021°05'1 2.5
2017-Dec-13 23:00N 44°44' E 021°07'1 2.5
2017-Dec-13 22:30N 44°44' E 021°08'1 2.6
2017-Dec-13 22:00N 44°45' E 021°10'2 2.2
2017-Dec-13 21:15N 44°46' E 021°12'21 0.7
2017-Dec-12 14:01N 44°40' E 020°44'0 1.7
2017-Dec-12 14:00N 44°40' E 020°44'0 0.0
2017-Dec-12 11:29N 44°40' E 020°44'0 0.0
2017-Dec-11 19:35N 44°40' E 020°44'0 5.9
2017-Dec-11 19:30N 44°41' E 020°43'2 3.3
2017-Dec-11 19:00N 44°42' E 020°42'3 5.3
2017-Dec-11 18:30N 44°44' E 020°40'3 5.0
2017-Dec-11 18:00N 44°46' E 020°38'3 5.3
2017-Dec-11 17:30N 44°49' E 020°38'3 5.4
2017-Dec-11 17:00N 44°51' E 020°37'3 6.0
2017-Dec-11 16:30N 44°50' E 020°33'3 5.5
2017-Dec-11 16:00N 44°50' E 020°29'2 4.1
2017-Dec-11 15:30N 44°49' E 020°27'3 5.3
2017-Dec-11 15:00N 44°48' E 020°24'3 5.6
2017-Dec-11 14:30N 44°46' E 020°21'1 3.0
2017-Dec-11 14:00N 44°45' E 020°19'0 0.0
2017-Dec-11 13:30N 44°45' E 020°19'0 0.0
2017-Dec-11 13:00N 44°45' E 020°19'0 0.0
2017-Dec-11 05:30N 44°45' E 020°20'0 0.0
2017-Dec-11 05:00N 44°45' E 020°20'0 0.0
2017-Dec-11 04:30N 44°45' E 020°20'0 0.0
2017-Dec-11 04:00N 44°45' E 020°20'0 0.3
2017-Dec-11 03:30N 44°45' E 020°20'1 2.5
2017-Dec-11 03:00N 44°46' E 020°21'1 2.5
2017-Dec-11 02:30N 44°47' E 020°22'1 2.5
2017-Dec-11 02:00N 44°48' E 020°23'1 2.4
2017-Dec-11 01:30N 44°48' E 020°25'1 2.2
2017-Dec-11 01:00N 44°48' E 020°26'1 2.2
2017-Dec-11 00:30N 44°49' E 020°27'1 1.8
2017-Dec-11 00:00N 44°50' E 020°27'1 2.5
2017-Dec-10 23:30N 44°50' E 020°29'1 2.7
2017-Dec-10 23:00N 44°50' E 020°31'1 2.7
2017-Dec-10 22:30N 44°50' E 020°33'1 2.8
2017-Dec-10 22:00N 44°51' E 020°35'1 2.7
2017-Dec-10 21:30N 44°51' E 020°36'1 2.6
2017-Dec-10 21:00N 44°51' E 020°38'1 2.7
2017-Dec-10 20:30N 44°49' E 020°39'1 2.7
2017-Dec-10 20:00N 44°48' E 020°38'1 2.7
2017-Dec-10 19:30N 44°47' E 020°38'1 2.5
2017-Dec-10 19:00N 44°46' E 020°38'1 2.6
2017-Dec-10 18:30N 44°45' E 020°39'1 2.9
2017-Dec-10 18:00N 44°44' E 020°41'1 2.7
2017-Dec-10 17:30N 44°43' E 020°42'1 2.7
2017-Dec-10 17:00N 44°41' E 020°43'1 2.9
2017-Dec-10 16:30N 44°40' E 020°44'1 2.9
2017-Dec-10 16:00N 44°40' E 020°46'1 2.6
2017-Dec-10 15:30N 44°40' E 020°48'1 2.6
2017-Dec-10 15:00N 44°40' E 020°50'1 2.9
2017-Dec-10 14:30N 44°40' E 020°52'1 2.8
2017-Dec-10 14:00N 44°40' E 020°54'1 2.7
2017-Dec-10 13:30N 44°41' E 020°56'1 2.8
2017-Dec-10 13:00N 44°42' E 020°57'1 2.7
2017-Dec-10 12:30N 44°42' E 020°59'1 2.6
2017-Dec-10 12:00N 44°43' E 021°00'1 2.3
2017-Dec-10 11:30N 44°43' E 021°02'8 0.4
2017-Dec-09 15:43N 44°46' E 021°12'2 5.3
2017-Dec-09 15:25N 44°46' E 021°11'3 5.7
2017-Dec-09 14:57N 44°44' E 021°08'3 5.5
2017-Dec-09 14:29N 44°43' E 021°04'3 5.3
2017-Dec-09 14:00N 44°43' E 021°01'3 5.3
2017-Dec-09 13:30N 44°42' E 020°57'3 5.6
2017-Dec-09 13:00N 44°40' E 020°54'3 5.4
2017-Dec-09 12:30N 44°39' E 020°51'3 5.8
2017-Dec-09 12:00N 44°39' E 020°47'3 5.4
2017-Dec-09 11:30N 44°41' E 020°43'3 5.3
2017-Dec-09 11:00N 44°43' E 020°41'3 5.3
2017-Dec-09 10:30N 44°45' E 020°39'3 5.0
2017-Dec-09 10:00N 44°47' E 020°38'3 5.2
2017-Dec-09 09:30N 44°50' E 020°39'3 5.0
2017-Dec-09 09:00N 44°51' E 020°36'3 5.6
2017-Dec-09 08:30N 44°50' E 020°32'3 5.5
2017-Dec-09 08:00N 44°50' E 020°29'2 4.3
2017-Dec-09 07:30N 44°48' E 020°26'3 6.1
2017-Dec-09 07:00N 44°47' E 020°22'3 6.1
2017-Dec-09 06:30N 44°45' E 020°20'0 0.7
2017-Dec-09 06:00N 44°45' E 020°19'0 0.2
2017-Dec-09 05:30N 44°45' E 020°19'0 0.0
2017-Dec-09 05:00N 44°45' E 020°19'0 0.0
2017-Dec-09 04:30N 44°45' E 020°19'0 0.0
2017-Dec-09 04:00N 44°45' E 020°19'0 0.3
2017-Dec-09 03:30N 44°45' E 020°20'0 0.4
2017-Dec-09 03:00N 44°45' E 020°19'0 0.0
2017-Dec-09 02:30N 44°45' E 020°19'0 0.0
2017-Dec-09 02:00N 44°45' E 020°19'0 0.0
2017-Dec-09 01:30N 44°45' E 020°19'0 0.0
2017-Dec-09 01:00N 44°45' E 020°19'0 0.5
2017-Dec-09 00:30N 44°45' E 020°20'0 0.0
2017-Dec-09 00:00N 44°45' E 020°20'0 0.0
2017-Dec-08 23:30N 44°45' E 020°20'0 0.0
2017-Dec-08 23:00N 44°45' E 020°20'0 0.0
2017-Dec-08 22:30N 44°45' E 020°20'1 1.2
2017-Dec-08 22:00N 44°45' E 020°20'1 2.5
2017-Dec-08 21:30N 44°46' E 020°21'1 2.5
2017-Dec-08 21:00N 44°47' E 020°22'1 2.3
2017-Dec-08 20:30N 44°48' E 020°24'1 2.3
2017-Dec-08 20:00N 44°48' E 020°25'1 2.1
2017-Dec-08 19:30N 44°48' E 020°27'1 1.9
2017-Dec-08 19:00N 44°49' E 020°27'1 1.8
2017-Dec-08 18:30N 44°50' E 020°27'1 2.3
2017-Dec-08 18:00N 44°50' E 020°29'1 2.4
2017-Dec-08 17:30N 44°50' E 020°31'1 2.5
2017-Dec-08 17:00N 44°50' E 020°32'1 2.5
2017-Dec-08 16:30N 44°51' E 020°34'1 2.6
2017-Dec-08 16:00N 44°51' E 020°36'1 2.6
2017-Dec-08 15:30N 44°51' E 020°38'1 2.7
2017-Dec-08 15:00N 44°50' E 020°39'1 2.5
2017-Dec-08 14:30N 44°49' E 020°38'1 2.8
2017-Dec-08 14:00N 44°47' E 020°38'1 2.6
2017-Dec-08 13:30N 44°46' E 020°38'1 2.6
2017-Dec-08 13:00N 44°45' E 020°39'1 2.5
2017-Dec-08 12:30N 44°44' E 020°40'1 2.8
2017-Dec-08 12:00N 44°43' E 020°41'1 2.7
2017-Dec-08 11:30N 44°42' E 020°42'1 2.8
2017-Dec-08 11:00N 44°41' E 020°43'1 1.0
2017-Dec-08 10:27N 44°40' E 020°44'0 0.1
2017-Dec-08 09:58N 44°40' E 020°44'0 0.0
2017-Dec-08 09:30N 44°40' E 020°44'0 0.0
2017-Dec-08 09:00N 44°40' E 020°44'0 0.2
2017-Dec-08 08:30N 44°40' E 020°44'1 1.5
2017-Dec-08 07:58N 44°40' E 020°45'1 2.7
2017-Dec-08 07:30N 44°40' E 020°46'8 2.3
2017-Dec-08 04:05N 44°42' E 020°57'0 2.6
2017-Dec-08 04:00N 44°42' E 020°57'2 2.3
2017-Dec-08 02:59N 44°43' E 021°00'1 2.2
2017-Dec-08 02:30N 44°43' E 021°02'6 2.4
2017-Dec-07 23:53N 44°45' E 021°10'1 1.9
2017-Dec-07 23:30N 44°46' E 021°11'1 2.2
2017-Dec-07 23:00N 44°46' E 021°12'1 2.3
2017-Dec-07 22:22N 44°47' E 021°14'1 2.7
2017-Dec-07 21:58N 44°47' E 021°15'  

Dump ship's entire track history